Archival Weather

Greater Kankakee

Kankakee, Illinois (KIKK)

Report from: Wednesday, December 6, 2023 4:15 PM CST
Current time: Saturday, February 24, 2024 10:26 AM CST

Current weather – Weather history – Daily summaries
Weather forecast

Temperature2.1°C (35.8°F)
Wind chill-2.1°C (28.2°F)
Dew point-0.8°C (30.6°F)
Winds 9 kts (4.6 m/s, 10.4 mph) Southwest (230°)
Visibility10 mi. (16.1 km)
Clouds Ceiling: Overcast 1,500 ft. (457 m)
Altimeter30.22 in.Hg (1023 mB)
Relative humidity81 %
Density altitude-1,825 ft. (-556 m)
Remarks Fully automated report
Automated weather observing station with precipitation discriminator
Present weather sensor not operating
Flight conditions Marginal Visual Meteorological Conditions
Raw dataKIKK 062215Z AUTO 23009KT 10SM OVC015 02/M01 A3022 RMK AO2 T00211008 PWINO
An error has occurred. This application may no longer respond until reloaded. Reload 🗙